Time;durP1;ratioP1;P1;durP2;ratioP2;P2;SDS_P1;SDS_P2;PMS_P1;PMS_P2;Temp;Humidity;BMP_temperature;BMP_pressure;BME280_temperature;BME280_humidity;BME280_pressure;Samples;Min_cycle;Max_cycle;Signal;HPM_P1;HPM_P2
2023/03/02 00:01:58;;;;;;;25.02;11.57;;;2.60;99.90;;;;;;4964427;28;20038;-71
2023/03/02 00:04:32;;;;;;;23.10;10.75;;;2.60;99.90;;;;;;4970552;28;20046;-71
2023/03/02 00:07:02;;;;;;;28.88;11.95;;;2.60;99.90;;;;;;4968243;28;20734;-71
2023/03/02 00:09:29;;;;;;;27.92;13.10;;;2.60;99.90;;;;;;4969585;28;20035;-71
2023/03/02 00:11:55;;;;;;;25.42;11.73;;;2.60;99.90;;;;;;4970004;28;20129;-71
2023/03/02 00:14:26;;;;;;;35.60;13.23;;;2.50;99.90;;;;;;4967908;28;20089;-72
2023/03/02 00:16:52;;;;;;;36.08;12.63;;;2.40;99.90;;;;;;4968157;28;20037;-71
2023/03/02 00:19:17;;;;;;;28.45;11.63;;;2.50;99.90;;;;;;4968127;28;20043;-72
2023/03/02 00:21:43;;;;;;;30.85;12.93;;;2.40;99.90;;;;;;4965804;28;20077;-71
2023/03/02 00:24:09;;;;;;;29.23;12.43;;;2.40;99.90;;;;;;4965883;28;20563;-73
2023/03/02 00:26:35;;;;;;;36.78;14.15;;;2.30;99.90;;;;;;4967585;28;20066;-72
2023/03/02 00:29:01;;;;;;;29.02;12.73;;;2.30;99.90;;;;;;4970691;28;20027;-72
2023/03/02 00:31:27;;;;;;;31.77;13.55;;;2.30;99.90;;;;;;4970471;28;20035;-71
2023/03/02 00:33:55;;;;;;;33.08;13.23;;;2.30;99.90;;;;;;4966305;28;20029;-71
2023/03/02 00:36:22;;;;;;;30.10;12.07;;;2.30;99.90;;;;;;4966796;28;21573;-71
2023/03/02 00:38:50;;;;;;;35.35;15.07;;;2.20;99.90;;;;;;4966012;28;20030;-72
2023/03/02 00:41:17;;;;;;;32.83;14.57;;;2.30;99.90;;;;;;4966585;28;20658;-72
2023/03/02 00:43:43;;;;;;;32.58;14.45;;;2.10;99.90;;;;;;4967357;28;20038;-71
2023/03/02 00:46:11;;;;;;;37.85;16.35;;;2.10;99.90;;;;;;4967193;28;20387;-71
2023/03/02 00:48:36;;;;;;;36.70;14.43;;;2.20;99.90;;;;;;4972688;28;20031;-72
2023/03/02 00:51:02;;;;;;;38.60;15.85;;;2.20;99.90;;;;;;4972737;28;20027;-71
2023/03/02 00:53:28;;;;;;;35.75;14.52;;;2.10;99.90;;;;;;4970062;28;20054;-71
2023/03/02 00:55:54;;;;;;;38.33;15.02;;;2.10;99.90;;;;;;4969366;28;20061;-72
2023/03/02 00:58:20;;;;;;;41.65;16.48;;;2.00;99.90;;;;;;4966583;28;20114;-71
2023/03/02 01:00:46;;;;;;;39.45;15.73;;;2.00;99.90;;;;;;4974668;28;20031;-71
2023/03/02 01:03:12;;;;;;;37.50;15.05;;;1.90;99.90;;;;;;4975415;28;20510;-71
2023/03/02 01:05:37;;;;;;;40.13;14.70;;;2.00;99.90;;;;;;4967821;28;20634;-72
2023/03/02 01:08:03;;;;;;;44.05;14.68;;;2.00;99.90;;;;;;4967242;28;20042;-71
2023/03/02 01:10:32;;;;;;;39.45;16.10;;;2.00;99.90;;;;;;4969817;28;20035;-73
2023/03/02 01:12:58;;;;;;;32.28;14.10;;;1.90;99.90;;;;;;4975953;28;20038;-71
2023/03/02 01:15:24;;;;;;;38.50;14.90;;;1.90;99.90;;;;;;4965985;28;20049;-72
2023/03/02 01:17:50;;;;;;;41.30;15.23;;;1.90;99.90;;;;;;4970378;28;20034;-71
2023/03/02 01:20:16;;;;;;;44.60;16.27;;;1.90;99.90;;;;;;4966157;28;20073;-72
2023/03/02 01:22:43;;;;;;;38.55;15.63;;;1.90;99.90;;;;;;4967118;28;20554;-71
2023/03/02 01:25:09;;;;;;;46.90;17.63;;;1.90;99.90;;;;;;4968314;28;20115;-72
2023/03/02 01:27:35;;;;;;;43.83;15.48;;;1.90;99.90;;;;;;4988504;28;20644;-71
2023/03/02 01:30:00;;;;;;;39.72;14.63;;;1.90;99.90;;;;;;4986273;28;20022;-71
2023/03/02 01:32:26;;;;;;;39.13;15.35;;;1.90;99.90;;;;;;4968037;28;20038;-71
2023/03/02 01:34:52;;;;;;;38.45;14.50;;;1.90;99.90;;;;;;4986235;28;20034;-71
2023/03/02 01:37:19;;;;;;;41.88;15.63;;;1.80;99.90;;;;;;4986704;28;20049;-72
2023/03/02 01:39:45;;;;;;;39.40;14.90;;;1.80;99.90;;;;;;4985461;28;20924;-71
2023/03/02 01:42:11;;;;;;;45.10;15.68;;;1.80;99.90;;;;;;4986617;28;20030;-72
2023/03/02 01:44:45;;;;;;;38.10;14.48;;;1.80;99.90;;;;;;4994176;28;20526;-71
2023/03/02 01:47:16;;;;;;;42.75;15.38;;;1.80;99.90;;;;;;4974741;28;20058;-72
2023/03/02 01:49:53;;;;;;;37.60;14.20;;;1.80;99.90;;;;;;4985875;28;20495;-71
2023/03/02 01:52:19;;;;;;;38.53;16.10;;;1.80;99.90;;;;;;4967469;28;20065;-71
2023/03/02 01:54:48;;;;;;;37.85;15.30;;;1.80;99.90;;;;;;4969843;28;20061;-71
2023/03/02 01:57:17;;;;;;;39.05;14.48;;;1.80;99.90;;;;;;4968795;28;20057;-72
2023/03/02 01:59:42;;;;;;;37.60;15.52;;;1.80;99.90;;;;;;4985727;28;20038;-71
2023/03/02 02:02:10;;;;;;;39.55;14.73;;;1.80;99.90;;;;;;4985868;28;20108;-71
2023/03/02 02:04:38;;;;;;;40.67;15.98;;;1.80;99.90;;;;;;4988960;28;20401;-71
2023/03/02 02:07:07;;;;;;;41.00;15.73;;;1.80;99.90;;;;;;4989316;28;20027;-74
2023/03/02 02:09:38;;;;;;;45.80;15.98;;;1.80;99.90;;;;;;4988617;28;20514;-71
2023/03/02 02:12:04;;;;;;;;;;;1.90;99.90;;;;;;4990368;28;20026;-71
2023/03/02 02:14:30;;;;;;;38.17;13.73;;;1.90;99.90;;;;;;4989628;28;19993;-71
2023/03/02 02:16:56;;;;;;;44.15;16.30;;;1.90;99.90;;;;;;4989301;28;20116;-71
2023/03/02 02:19:44;;;;;;;44.67;16.67;;;1.80;99.90;;;;;;4988188;28;20842;-71
2023/03/02 02:22:10;;;;;;;42.63;15.10;;;1.90;99.90;;;;;;4985756;28;20038;-73
2023/03/02 02:24:48;;;;;;;40.72;15.20;;;1.80;99.90;;;;;;4993412;28;20042;-71
2023/03/02 02:27:14;;;;;;;47.90;16.55;;;1.80;99.90;;;;;;4992557;28;20052;-71
2023/03/02 02:29:44;;;;;;;40.80;15.90;;;1.80;99.90;;;;;;4989058;28;20038;-71
2023/03/02 02:32:10;;;;;;;31.38;11.88;;;1.80;99.90;;;;;;4988895;28;20031;-72
2023/03/02 02:34:48;;;;;;;39.38;14.95;;;1.90;99.90;;;;;;4971067;28;20667;-71
2023/03/02 02:37:29;;;;;;;39.13;13.82;;;1.90;99.90;;;;;;4988581;28;20945;-72
2023/03/02 02:39:56;;;;;;;39.22;13.15;;;1.80;99.90;;;;;;4988887;28;20398;-71
2023/03/02 02:42:35;;;;;;;40.63;14.40;;;1.90;99.90;;;;;;4992232;28;20041;-71
2023/03/02 02:45:04;;;;;;;33.40;13.15;;;1.80;99.90;;;;;;4988880;28;20038;-71
2023/03/02 02:47:30;;;;;;;36.80;14.85;;;1.80;99.90;;;;;;4988887;28;20030;-71
2023/03/02 02:49:57;;;;;;;36.03;13.88;;;1.80;99.90;;;;;;4991568;28;20038;-71
2023/03/02 02:52:25;;;;;;;32.95;14.43;;;1.80;99.90;;;;;;4987845;28;20038;-72
2023/03/02 02:54:53;;;;;;;39.70;14.38;;;1.80;99.90;;;;;;4988700;28;20045;-73
2023/03/02 02:57:20;;;;;;;34.50;14.15;;;1.80;99.90;;;;;;4983659;28;20492;-71
2023/03/02 02:59:58;;;;;;;33.65;12.82;;;1.80;99.90;;;;;;4988679;28;20142;-71
2023/03/02 03:02:28;;;;;;;34.70;14.38;;;1.80;99.90;;;;;;4983943;28;20037;-71
2023/03/02 03:05:01;;;;;;;34.95;12.80;;;1.80;99.90;;;;;;5000946;28;20109;-71
2023/03/02 03:07:29;;;;;;;35.95;14.50;;;1.80;99.90;;;;;;4995185;28;20400;-71
2023/03/02 03:10:24;;;;;;;37.20;13.80;;;1.80;99.90;;;;;;4981745;28;20128;-71
2023/03/02 03:12:51;;;;;;;38.03;14.00;;;1.70;99.90;;;;;;4987706;28;20149;-71
2023/03/02 03:15:17;;;;;;;37.00;14.15;;;1.70;99.90;;;;;;4990801;28;20144;-71
2023/03/02 03:17:52;;;;;;;32.80;13.98;;;1.70;99.90;;;;;;5002686;28;20187;-71
2023/03/02 03:20:18;;;;;;;42.50;14.40;;;1.70;99.90;;;;;;4983047;28;20104;-71
2023/03/02 03:22:44;;;;;;;37.08;14.10;;;1.70;99.90;;;;;;4974208;28;20057;-71
2023/03/02 03:25:14;;;;;;;30.70;13.18;;;1.70;99.90;;;;;;4991236;28;20038;-71
2023/03/02 03:27:41;;;;;;;38.65;13.93;;;1.60;99.90;;;;;;4974555;28;20494;-71
2023/03/02 03:30:09;;;;;;;42.33;14.27;;;1.60;99.90;;;;;;4991096;28;20034;-71
2023/03/02 03:32:39;;;;;;;35.17;13.85;;;1.60;99.90;;;;;;4972156;28;20041;-71
2023/03/02 03:35:07;;;;;;;32.30;12.53;;;1.50;99.90;;;;;;4968306;28;20403;-73
2023/03/02 03:37:34;;;;;;;35.40;13.35;;;1.60;99.90;;;;;;4971237;28;20365;-71
2023/03/02 03:39:59;;;;;;;40.65;13.40;;;1.60;99.90;;;;;;4971579;28;20054;-71
2023/03/02 03:42:25;;;;;;;38.85;14.63;;;1.60;99.90;;;;;;4974148;28;20058;-71
2023/03/02 03:44:51;;;;;;;38.63;13.73;;;1.50;99.90;;;;;;4958917;28;20049;-71
2023/03/02 03:47:16;;;;;;;32.13;13.85;;;1.50;99.90;;;;;;4974247;28;20039;-71
2023/03/02 03:49:42;;;;;;;31.67;12.40;;;1.50;99.90;;;;;;4971407;28;20077;-71
2023/03/02 03:52:07;;;;;;;37.97;14.80;;;1.50;99.90;;;;;;4970284;28;20038;-71
2023/03/02 03:54:33;;;;;;;36.40;12.52;;;1.50;99.90;;;;;;4971905;28;20507;-71
2023/03/02 03:56:59;;;;;;;36.95;13.93;;;1.50;99.90;;;;;;4980509;28;20030;-70
2023/03/02 03:59:25;;;;;;;41.05;13.20;;;1.50;99.90;;;;;;4969986;28;20093;-71
2023/03/02 04:01:56;;;;;;;33.60;12.55;;;1.50;99.90;;;;;;4973902;28;20030;-71
2023/03/02 04:04:25;;;;;;;33.47;12.07;;;1.40;99.90;;;;;;4974617;28;20069;-71
2023/03/02 04:06:51;;;;;;;29.55;11.18;;;1.40;99.90;;;;;;4973452;28;20655;-71
2023/03/02 04:09:17;;;;;;;36.50;13.02;;;1.40;99.90;;;;;;4966972;28;20154;-70
2023/03/02 04:11:44;;;;;;;27.02;12.10;;;1.40;99.90;;;;;;4967523;28;20041;-71
2023/03/02 04:14:11;;;;;;;29.80;11.32;;;1.50;99.90;;;;;;4967615;28;20055;-71
2023/03/02 04:16:38;;;;;;;34.00;12.75;;;1.40;99.90;;;;;;4970245;28;20026;-71
2023/03/02 04:19:08;;;;;;;31.60;13.18;;;1.40;99.90;;;;;;4967835;28;20491;-71
2023/03/02 04:21:38;;;;;;;29.75;11.85;;;1.40;99.90;;;;;;4969723;28;20077;-71
2023/03/02 04:24:05;;;;;;;37.00;13.02;;;1.30;99.90;;;;;;4968102;28;20039;-71
2023/03/02 04:26:31;;;;;;;37.45;13.63;;;1.30;99.90;;;;;;4969627;28;20034;-71
2023/03/02 04:28:57;;;;;;;41.70;13.77;;;1.30;99.90;;;;;;4973663;28;20038;-71
2023/03/02 04:31:23;;;;;;;31.42;11.68;;;1.30;99.90;;;;;;4971653;28;20183;-71
2023/03/02 04:33:48;;;;;;;29.58;11.75;;;1.30;99.90;;;;;;4974178;28;20130;-71
2023/03/02 04:36:14;;;;;;;29.83;11.05;;;1.20;99.90;;;;;;4977754;28;20073;-71
2023/03/02 04:38:40;;;;;;;34.13;11.82;;;1.20;99.90;;;;;;4969301;28;20904;-71
2023/03/02 04:41:05;;;;;;;31.40;12.70;;;1.20;99.90;;;;;;4971283;28;20049;-71
2023/03/02 04:43:31;;;;;;;31.85;12.55;;;1.20;99.90;;;;;;4967293;28;20035;-71
2023/03/02 04:45:57;;;;;;;28.83;11.75;;;1.20;99.90;;;;;;4974538;28;20042;-71
2023/03/02 04:48:23;;;;;;;31.42;11.20;;;1.20;99.90;;;;;;4966887;28;20034;-71
2023/03/02 04:50:49;;;;;;;29.52;11.48;;;1.20;99.90;;;;;;4978780;28;20031;-71
2023/03/02 04:53:14;;;;;;;31.92;13.13;;;1.30;99.90;;;;;;4972551;28;20043;-71
2023/03/02 04:55:40;;;;;;;33.85;12.32;;;1.30;99.90;;;;;;4967712;28;20511;-70
2023/03/02 04:58:06;;;;;;;32.60;11.73;;;1.30;99.90;;;;;;4967091;28;20061;-71
2023/03/02 05:00:34;;;;;;;29.10;11.68;;;1.20;99.90;;;;;;4967894;28;20522;-72
2023/03/02 05:03:00;;;;;;;29.23;11.63;;;1.20;99.90;;;;;;4969473;28;20114;-71
2023/03/02 05:05:26;;;;;;;31.00;12.00;;;1.20;99.90;;;;;;4969129;28;20042;-71
2023/03/02 05:07:53;;;;;;;36.35;12.68;;;1.20;99.90;;;;;;4967253;28;20463;-71
2023/03/02 05:10:20;;;;;;;35.50;12.45;;;1.10;99.90;;;;;;4966198;28;20081;-71
2023/03/02 05:12:57;;;;;;;29.90;11.60;;;1.20;99.90;;;;;;4969733;28;20046;-71
2023/03/02 05:15:33;;;;;;;29.00;11.43;;;1.10;99.90;;;;;;4964426;28;20600;-71
2023/03/02 05:17:59;;;;;;;31.25;12.07;;;1.10;99.90;;;;;;4971250;28;20093;-71
2023/03/02 05:20:26;;;;;;;32.58;11.45;;;1.10;99.90;;;;;;4967321;28;20042;-71
2023/03/02 05:23:00;;;;;;;32.45;10.82;;;1.00;99.90;;;;;;4979840;28;20506;-71
2023/03/02 05:25:27;;;;;;;32.47;12.27;;;1.00;99.90;;;;;;4970887;28;20059;-71
2023/03/02 05:27:53;;;;;;;29.08;10.55;;;0.90;99.90;;;;;;4970781;28;20030;-71
2023/03/02 05:30:20;;;;;;;27.42;9.93;;;0.90;99.90;;;;;;4972976;28;20042;-71
2023/03/02 05:32:45;;;;;;;31.42;11.57;;;0.90;99.90;;;;;;4971764;28;20043;-71
2023/03/02 05:35:12;;;;;;;34.22;11.88;;;1.00;99.90;;;;;;4972668;28;20040;-71
2023/03/02 05:37:41;;;;;;;27.27;11.77;;;0.90;99.90;;;;;;4974335;28;20088;-71
2023/03/02 05:40:08;;;;;;;27.83;10.68;;;1.00;99.90;;;;;;4970384;28;20027;-71
2023/03/02 05:42:34;;;;;;;36.17;13.27;;;1.00;99.90;;;;;;4970196;28;20031;-71
2023/03/02 05:45:01;;;;;;;29.38;11.73;;;1.10;99.90;;;;;;4971228;28;20030;-70
2023/03/02 05:47:27;;;;;;;32.88;11.15;;;1.10;99.90;;;;;;4970017;28;20041;-71
2023/03/02 05:49:52;;;;;;;30.05;11.90;;;1.20;99.90;;;;;;4970900;28;20126;-71
2023/03/02 05:52:18;;;;;;;30.92;12.50;;;1.10;99.90;;;;;;4970965;28;20031;-71
2023/03/02 05:54:43;;;;;;;37.13;10.65;;;1.10;99.90;;;;;;4970654;28;20090;-71
2023/03/02 05:57:09;;;;;;;26.40;11.73;;;1.10;99.90;;;;;;4970495;28;20417;-70
2023/03/02 05:59:34;;;;;;;32.88;12.23;;;1.10;99.90;;;;;;4978274;28;20046;-71
2023/03/02 06:02:00;;;;;;;32.30;11.75;;;1.00;99.90;;;;;;4970106;28;20125;-71
2023/03/02 06:04:25;;;;;;;31.00;12.45;;;1.00;99.90;;;;;;4970945;28;20042;-71
2023/03/02 06:06:51;;;;;;;28.85;10.57;;;1.00;99.90;;;;;;4976032;28;20035;-71
2023/03/02 06:09:17;;;;;;;32.15;12.15;;;1.10;99.90;;;;;;4967921;28;20647;-72
2023/03/02 06:11:42;;;;;;;36.72;12.95;;;1.00;99.90;;;;;;4970453;28;20038;-71
2023/03/02 06:14:08;;;;;;;33.78;11.15;;;1.00;99.90;;;;;;4970180;28;20030;-71
2023/03/02 06:16:34;;;;;;;29.35;11.68;;;1.00;99.90;;;;;;4970037;28;20038;-72
2023/03/02 06:19:00;;;;;;;31.17;11.73;;;0.90;99.90;;;;;;4972020;28;20057;-72
2023/03/02 06:21:26;;;;;;;32.47;13.02;;;0.90;99.90;;;;;;4971161;28;20030;-71
2023/03/02 06:23:51;;;;;;;32.90;11.88;;;0.90;99.90;;;;;;4969976;28;20031;-72
2023/03/02 06:26:17;;;;;;;33.28;11.88;;;1.00;99.90;;;;;;4969442;28;20031;-73
2023/03/02 06:28:42;;;;;;;28.35;11.85;;;1.00;99.90;;;;;;4969695;28;20464;-71
2023/03/02 06:31:08;;;;;;;31.40;12.40;;;1.00;99.90;;;;;;4969755;28;20031;-72
2023/03/02 06:33:33;;;;;;;31.05;11.85;;;0.90;99.90;;;;;;4970129;28;20069;-72
2023/03/02 06:35:59;;;;;;;29.75;11.93;;;0.90;99.90;;;;;;4972830;28;20046;-70
2023/03/02 06:38:25;;;;;;;37.38;12.85;;;0.90;99.90;;;;;;4980995;28;20042;-75
2023/03/02 06:40:50;;;;;;;31.10;12.07;;;0.90;99.90;;;;;;4979714;28;20026;-71
2023/03/02 06:43:16;;;;;;;32.30;12.13;;;0.90;99.90;;;;;;4969490;28;20045;-72
2023/03/02 06:45:41;;;;;;;37.33;13.45;;;0.90;99.90;;;;;;4970051;28;20046;-72
2023/03/02 06:48:07;;;;;;;31.50;13.25;;;0.90;99.90;;;;;;4969139;28;20034;-72
2023/03/02 06:50:33;;;;;;;34.78;11.70;;;1.00;99.90;;;;;;4968928;28;20628;-72
2023/03/02 06:52:59;;;;;;;30.25;12.07;;;1.00;99.90;;;;;;4970188;28;20061;-71
2023/03/02 06:55:25;;;;;;;35.47;12.10;;;1.10;99.90;;;;;;4968450;28;20399;-72
2023/03/02 06:57:50;;;;;;;33.60;12.75;;;1.10;99.90;;;;;;4969776;28;20063;-72
2023/03/02 07:00:23;;;;;;;37.25;14.10;;;1.10;99.90;;;;;;4968028;28;20042;-72
2023/03/02 07:02:54;;;;;;;34.45;13.23;;;1.20;99.90;;;;;;4967311;28;20120;-72
2023/03/02 07:05:22;;;;;;;33.65;12.77;;;1.10;99.90;;;;;;4966975;28;20053;-71
2023/03/02 07:07:47;;;;;;;37.55;13.27;;;1.20;99.90;;;;;;4969088;28;20372;-72
2023/03/02 07:10:13;;;;;;;35.50;13.25;;;1.10;99.90;;;;;;4966768;28;20130;-72
2023/03/02 07:12:40;;;;;;;37.50;13.00;;;1.10;99.90;;;;;;4967391;28;20039;-72
2023/03/02 07:15:09;;;;;;;35.35;11.50;;;1.10;99.90;;;;;;4968885;28;20118;-71
2023/03/02 07:17:36;;;;;;;33.67;12.07;;;1.10;99.90;;;;;;4965336;28;20174;-72
2023/03/02 07:20:04;;;;;;;29.10;12.23;;;1.20;99.90;;;;;;4969014;28;20046;-72
2023/03/02 07:22:30;;;;;;;30.75;11.23;;;1.30;99.90;;;;;;4968268;28;20053;-72
2023/03/02 07:24:55;;;;;;;32.92;12.13;;;1.20;99.90;;;;;;4968632;28;20491;-72
2023/03/02 07:27:21;;;;;;;31.42;11.93;;;1.20;99.90;;;;;;4964092;28;20392;-72
2023/03/02 07:29:47;;;;;;;28.98;11.45;;;1.30;99.90;;;;;;4972580;28;20089;-72
2023/03/02 07:32:12;;;;;;;32.47;11.93;;;1.30;99.90;;;;;;4977969;28;20372;-74
2023/03/02 07:34:38;;;;;;;29.17;10.50;;;1.30;99.90;;;;;;4967918;28;20027;-72
2023/03/02 07:37:04;;;;;;;31.55;12.23;;;1.40;99.90;;;;;;4967854;28;20054;-72
2023/03/02 07:39:29;;;;;;;27.30;12.07;;;1.50;99.90;;;;;;4968674;28;20035;-71
2023/03/02 07:42:03;;;;;;;31.88;11.32;;;1.50;99.90;;;;;;4971685;28;20031;-71
2023/03/02 07:44:29;;;;;;;30.08;11.55;;;1.60;99.90;;;;;;4964824;28;20403;-71
2023/03/02 07:46:55;;;;;;;24.55;9.85;;;1.60;99.90;;;;;;4967232;28;20455;-72
2023/03/02 07:49:21;;;;;;;29.92;11.02;;;1.70;99.90;;;;;;4964213;28;20610;-71
2023/03/02 07:51:46;;;;;;;27.55;11.57;;;1.80;99.90;;;;;;4966248;28;20081;-71
2023/03/02 07:54:12;;;;;;;30.83;12.20;;;1.80;99.90;;;;;;4998021;28;20038;-72
2023/03/02 07:56:37;;;;;;;29.05;11.40;;;1.90;99.90;;;;;;4967778;28;20656;-72
2023/03/02 07:59:03;;;;;;;26.10;11.25;;;2.00;99.90;;;;;;4982898;28;20109;-72
2023/03/02 08:01:28;;;;;;;29.67;11.25;;;2.10;99.90;;;;;;4973215;28;20031;-72
2023/03/02 08:03:54;;;;;;;31.05;11.52;;;2.20;99.90;;;;;;4974423;28;20041;-72
2023/03/02 08:06:20;;;;;;;27.85;9.48;;;2.30;99.90;;;;;;4974202;28;20058;-71
2023/03/02 08:08:45;;;;;;;25.77;9.93;;;2.70;99.90;;;;;;4975540;28;20026;-70
2023/03/02 08:11:16;;;;;;;22.65;10.02;;;2.80;99.90;;;;;;4967857;28;20054;-72
2023/03/02 08:13:42;;;;;;;25.50;9.13;;;2.90;99.90;;;;;;4964692;28;20042;-72
2023/03/02 08:16:10;;;;;;;24.70;9.25;;;2.90;99.90;;;;;;4973844;28;20424;-72
2023/03/02 08:18:37;;;;;;;24.92;10.57;;;2.90;99.90;;;;;;4971293;28;20113;-72
2023/03/02 08:21:09;;;;;;;22.60;9.10;;;3.10;99.90;;;;;;4967265;28;20093;-72
2023/03/02 08:23:34;;;;;;;18.10;8.50;;;3.10;99.90;;;;;;4968135;28;20053;-71
2023/03/02 08:26:00;;;;;;;19.42;8.40;;;3.20;99.90;;;;;;4967777;28;20122;-72
2023/03/02 08:28:26;;;;;;;23.88;9.20;;;3.40;99.90;;;;;;4966392;28;20035;-73
2023/03/02 08:30:55;;;;;;;21.77;9.05;;;3.40;99.90;;;;;;4966826;28;20467;-72
2023/03/02 08:33:21;;;;;;;19.88;8.55;;;3.50;99.90;;;;;;4966379;28;20557;-72
2023/03/02 08:35:54;;;;;;;22.17;9.13;;;3.50;99.90;;;;;;4967408;28;20034;-72
2023/03/02 08:38:20;;;;;;;20.40;7.72;;;3.60;99.90;;;;;;4965596;28;20113;-72
2023/03/02 08:40:45;;;;;;;23.00;9.55;;;3.70;99.90;;;;;;4970772;28;20602;-71
2023/03/02 08:43:11;;;;;;;25.77;7.30;;;3.80;99.90;;;;;;4968913;28;20035;-72
2023/03/02 08:45:37;;;;;;;17.33;7.28;;;3.90;99.90;;;;;;4964345;28;20042;-72
2023/03/02 08:48:02;;;;;;;18.52;6.90;;;3.90;99.90;;;;;;4967790;28;20129;-72
2023/03/02 08:50:28;;;;;;;17.90;7.82;;;3.90;99.90;;;;;;4964802;28;20086;-71
2023/03/02 08:52:53;;;;;;;17.65;7.20;;;4.00;99.90;;;;;;4968821;28;20039;-72
2023/03/02 08:55:19;;;;;;;17.30;6.43;;;4.00;99.90;;;;;;4966509;28;20039;-72
2023/03/02 08:57:45;;;;;;;21.13;7.03;;;4.10;99.90;;;;;;4966956;28;20046;-73
2023/03/02 09:00:13;;;;;;;17.17;6.90;;;4.10;99.90;;;;;;4964320;28;20034;-72
2023/03/02 09:02:39;;;;;;;19.52;8.45;;;4.20;99.90;;;;;;4968798;28;20030;-72
2023/03/02 09:05:05;;;;;;;20.38;7.20;;;4.30;99.90;;;;;;4967053;28;20027;-74
2023/03/02 09:07:31;;;;;;;16.95;7.38;;;4.30;99.90;;;;;;4967345;28;20045;-72
2023/03/02 09:09:57;;;;;;;15.00;6.72;;;4.40;99.90;;;;;;4969907;28;20117;-73
2023/03/02 09:12:22;;;;;;;18.42;7.30;;;4.50;99.90;;;;;;4968978;28;20550;-71
2023/03/02 09:14:48;;;;;;;18.98;6.82;;;4.50;99.90;;;;;;4969238;28;20421;-72
2023/03/02 09:17:14;;;;;;;20.85;7.63;;;4.50;99.90;;;;;;4968776;28;20049;-73
2023/03/02 09:19:41;;;;;;;24.90;8.20;;;4.60;99.90;;;;;;4969979;28;20124;-72
2023/03/02 09:22:09;;;;;;;19.27;6.43;;;4.60;99.90;;;;;;4967624;28;20143;-73
2023/03/02 09:24:35;;;;;;;16.65;6.57;;;4.60;99.90;;;;;;4970402;28;20027;-72
2023/03/02 09:27:01;;;;;;;18.35;7.60;;;4.70;99.90;;;;;;4969776;28;20049;-72
2023/03/02 09:29:27;;;;;;;16.38;6.45;;;4.80;99.90;;;;;;4968464;28;20050;-72
2023/03/02 09:31:53;;;;;;;18.23;7.05;;;4.80;99.90;;;;;;4970232;28;20059;-72
2023/03/02 09:34:19;;;;;;;18.15;7.60;;;4.90;99.90;;;;;;4970179;28;20158;-73
2023/03/02 09:36:45;;;;;;;19.63;7.32;;;5.00;99.90;;;;;;4971122;28;20712;-73
2023/03/02 09:39:11;;;;;;;18.17;6.40;;;5.00;99.90;;;;;;4971183;28;20029;-74
2023/03/02 09:41:51;;;;;;;15.77;7.40;;;5.20;99.90;;;;;;4969856;28;20027;-73
2023/03/02 09:44:39;;;;;;;15.48;6.30;;;5.20;99.90;;;;;;4969598;28;20031;-73
2023/03/02 09:47:22;;;;;;;18.88;7.05;;;5.20;99.90;;;;;;4975142;28;20039;-75
2023/03/02 09:50:11;;;;;;;14.98;6.28;;;5.30;99.90;;;;;;4969482;28;20059;-73
2023/03/02 09:53:17;;;;;;;22.10;6.97;;;5.20;99.90;;;;;;4971575;28;20094;-72
2023/03/02 09:55:45;;;;;;;19.88;6.95;;;5.30;99.90;;;;;;4973212;28;20421;-73
2023/03/02 09:58:18;;;;;;;18.70;6.63;;;5.30;99.90;;;;;;4970224;28;20035;-74
2023/03/02 10:00:44;;;;;;;20.38;6.95;;;5.40;99.90;;;;;;4971658;28;20068;-73
2023/03/02 10:03:22;;;;;;;18.30;6.53;;;5.40;99.90;;;;;;4969465;28;20030;-74
2023/03/02 10:05:55;;;;;;;16.73;7.35;;;5.40;99.90;;;;;;4967921;28;20122;-73
2023/03/02 10:08:27;;;;;;;17.20;7.40;;;5.40;99.90;;;;;;4969216;28;20173;-73
2023/03/02 10:10:58;;;;;;;17.67;6.95;;;5.50;99.90;;;;;;4968546;28;20729;-72
2023/03/02 10:13:29;;;;;;;15.10;5.78;;;5.50;99.90;;;;;;4967960;28;20039;-73
2023/03/02 10:16:18;;;;;;;18.17;6.47;;;5.60;99.90;;;;;;4969327;28;20046;-73
2023/03/02 10:18:53;;;;;;;16.67;6.38;;;5.80;99.90;;;;;;4966380;28;20038;-73
2023/03/02 10:21:26;;;;;;;15.18;6.28;;;5.80;99.90;;;;;;4967270;28;20057;-73
2023/03/02 10:24:10;;;;;;;16.35;4.53;;;5.80;99.90;;;;;;4966471;28;20046;-72
2023/03/02 10:26:41;;;;;;;18.80;7.28;;;5.90;99.90;;;;;;4970304;28;20035;-71
2023/03/02 10:29:24;;;;;;;12.68;6.18;;;5.80;99.90;;;;;;4965815;28;20031;-73
2023/03/02 10:32:13;;;;;;;16.33;6.38;;;5.90;99.90;;;;;;4966000;28;20117;-72
2023/03/02 10:34:39;;;;;;;16.08;5.85;;;5.90;99.90;;;;;;4971852;28;20030;-72
2023/03/02 10:37:12;;;;;;;14.95;5.97;;;6.00;99.90;;;;;;4975673;28;20042;-73
2023/03/02 10:39:38;;;;;;;15.70;5.63;;;6.00;99.90;;;;;;4977815;28;20033;-72
2023/03/02 10:42:06;;;;;;;17.20;6.18;;;6.00;99.90;;;;;;4973827;28;20515;-72
2023/03/02 10:44:39;;;;;;;14.15;6.53;;;6.00;99.90;;;;;;4991673;28;20085;-72
2023/03/02 10:47:06;;;;;;;14.90;5.85;;;6.00;99.90;;;;;;4994034;28;20046;-70
2023/03/02 10:49:40;;;;;;;13.73;5.47;;;6.00;99.90;;;;;;4987041;28;20038;-72
2023/03/02 10:52:13;;;;;;;13.52;6.00;;;6.10;99.90;;;;;;5006126;28;20029;-72
2023/03/02 10:54:39;;;;;;;16.17;5.47;;;6.20;99.90;;;;;;4974589;28;20042;-73
2023/03/02 10:57:39;;;;;;;16.45;6.38;;;6.20;99.90;;;;;;4994673;28;20037;-75
2023/03/02 11:00:17;;;;;;;14.98;6.13;;;6.20;99.90;;;;;;4987817;28;20030;-73
2023/03/02 11:03:00;;;;;;;13.43;5.45;;;6.20;99.90;;;;;;4981245;28;20039;-72
2023/03/02 11:05:35;;;;;;;14.98;5.95;;;6.20;99.90;;;;;;4965833;28;20114;-72
2023/03/02 11:08:08;;;;;;;19.20;6.82;;;6.30;99.90;;;;;;4964209;28;20031;-72
2023/03/02 11:10:37;;;;;;;15.23;6.95;;;6.30;99.90;;;;;;4965358;28;20043;-73
2023/03/02 11:13:23;;;;;;;17.58;6.50;;;6.20;99.90;;;;;;4966180;28;20038;-71
2023/03/02 11:15:53;;;;;;;17.25;6.28;;;6.30;99.90;;;;;;4964306;28;20048;-73
2023/03/02 11:18:19;;;;;;;15.40;5.32;;;6.30;99.90;;;;;;4965424;28;20039;-71
2023/03/02 11:20:48;;;;;;;17.92;6.70;;;6.40;99.90;;;;;;4966838;28;20069;-74
2023/03/02 11:23:24;;;;;;;14.90;5.70;;;6.50;99.90;;;;;;4963583;28;21466;-74
2023/03/02 11:25:57;;;;;;;16.52;5.32;;;6.50;99.90;;;;;;4967541;28;20069;-72
2023/03/02 11:28:31;;;;;;;15.27;6.03;;;6.50;99.90;;;;;;4965356;28;20645;-72
2023/03/02 11:31:01;;;;;;;20.90;6.80;;;6.50;99.90;;;;;;4965796;28;20035;-74
2023/03/02 11:33:52;;;;;;;23.35;6.72;;;6.50;99.90;;;;;;4962233;28;20042;-72
2023/03/02 11:36:22;;;;;;;17.80;5.85;;;6.60;99.90;;;;;;4949874;28;20427;-72
2023/03/02 11:38:52;;;;;;;16.65;6.80;;;6.70;99.90;;;;;;4967188;28;20042;-73
2023/03/02 11:41:28;;;;;;;16.27;6.33;;;6.70;99.90;;;;;;4965525;28;20043;-73
2023/03/02 11:43:55;;;;;;;19.77;6.68;;;6.80;99.90;;;;;;4966978;28;20798;-72
2023/03/02 11:46:29;;;;;;;18.52;5.88;;;6.80;99.90;;;;;;4965857;28;20039;-72
2023/03/02 11:48:58;;;;;;;18.20;6.35;;;6.80;99.90;;;;;;4967317;28;20148;-72
2023/03/02 11:51:31;;;;;;;15.68;6.38;;;6.90;99.90;;;;;;4964785;28;20085;-73
2023/03/02 11:53:59;;;;;;;18.35;6.22;;;6.90;99.90;;;;;;4967101;28;20046;-71
2023/03/02 11:56:30;;;;;;;19.40;6.15;;;6.90;99.90;;;;;;4967778;28;20114;-72
2023/03/02 11:59:06;;;;;;;;;;;6.90;99.90;;;;;;4967700;28;20113;-73
2023/03/02 12:01:34;;;;;;;16.40;7.03;;;7.00;99.90;;;;;;4988078;28;19964;-72
2023/03/02 12:04:33;;;;;;;17.48;6.50;;;6.90;99.90;;;;;;4970532;28;20535;-72
2023/03/02 12:07:17;;;;;;;19.10;7.10;;;7.00;99.90;;;;;;4963052;28;20078;-73
2023/03/02 12:09:43;;;;;;;15.57;5.93;;;7.10;99.90;;;;;;4968190;28;20041;-72
2023/03/02 12:13:00;;;;;;;15.43;6.35;;;7.00;99.90;;;;;;4966773;28;20129;-72
2023/03/02 12:15:38;;;;;;;21.00;7.18;;;7.00;99.90;;;;;;4962620;28;20039;-71
2023/03/02 12:18:22;;;;;;;23.80;6.80;;;7.20;99.90;;;;;;4966707;28;20034;-72
2023/03/02 12:21:10;;;;;;;16.08;6.47;;;7.20;99.90;;;;;;4966492;28;20038;-72
2023/03/02 12:23:42;;;;;;;15.10;5.57;;;7.30;99.90;;;;;;4964653;28;20031;-72
2023/03/02 12:26:20;;;;;;;17.30;7.28;;;7.30;99.90;;;;;;4967463;28;20035;-71
2023/03/02 12:29:00;;;;;;;16.08;5.90;;;7.30;99.90;;;;;;4969653;28;20042;-72
2023/03/02 12:31:37;;;;;;;13.77;5.88;;;7.40;99.90;;;;;;4987018;28;20516;-72
2023/03/02 12:34:22;;;;;;;20.80;7.95;;;7.50;99.90;;;;;;4972033;28;20048;-72
2023/03/02 12:36:49;;;;;;;15.60;6.53;;;7.50;99.90;;;;;;4995198;28;20043;-72
2023/03/02 12:39:56;;;;;;;16.30;6.22;;;7.50;99.90;;;;;;4972644;28;20663;-75
2023/03/02 12:42:47;;;;;;;17.42;6.95;;;7.50;99.90;;;;;;4936441;29;20159;-72
2023/03/02 12:45:36;;;;;;;17.42;7.07;;;7.50;99.90;;;;;;4972323;28;20030;-73
2023/03/02 12:48:14;;;;;;;15.77;6.95;;;7.60;99.90;;;;;;4965662;28;20089;-72
2023/03/02 12:50:40;;;;;;;19.65;7.78;;;7.60;99.90;;;;;;4967075;28;20046;-74
2023/03/02 12:53:16;;;;;;;21.10;7.85;;;7.60;99.90;;;;;;4971010;28;20042;-74